Hua-yang, China
Current Conditions -  °F | °C
As of 6:00 PM on Saturday 22 Nov 2014 (Local Time) from ZUUU Reporting Station
Scattered Clouds Scattered Clouds  
Wind Chill: 61°   Ceiling: Unl
Heat Index: 61°   Visibility: 6mi
Dew Point: 43°   Wind: 0mph
Humidity: 52%   Direction: NA
Pressure: 29.97"   Gusts: NA
Location:  30.5°N, 104.07°E
Report Text: ZUUU 221000Z 00000MPS 9999 SCT050 16/06 Q1015 NOSIG
Loading
Personal Weather Stations






























Interactive Weather Map New forecast layout! Learn more

10-Day Weather Forecast

Advertisements
Track Severe Weather on mobile